createdAt,value
2018-09-26T00:00:32.536Z,99.90
2018-09-26T00:03:13.197Z,99.90
2018-09-26T00:05:41.802Z,99.90
2018-09-26T00:08:10.351Z,99.90
2018-09-26T00:10:38.855Z,99.90
2018-09-26T00:13:13.733Z,99.90
2018-09-26T00:15:42.259Z,99.90
2018-09-26T00:18:10.749Z,99.90
2018-09-26T00:20:39.317Z,99.90
2018-09-26T00:23:08.081Z,99.90
2018-09-26T00:25:36.600Z,99.90
2018-09-26T00:28:05.163Z,99.90
2018-09-26T00:30:33.692Z,99.90
2018-09-26T00:33:02.174Z,99.90
2018-09-26T00:35:31.023Z,99.90
2018-09-26T00:37:59.540Z,99.90
2018-09-26T00:40:28.051Z,99.90
2018-09-26T00:42:56.634Z,99.90
2018-09-26T00:45:25.116Z,99.90
2018-09-26T00:47:53.638Z,99.90
2018-09-26T00:50:22.211Z,99.90
2018-09-26T00:52:50.748Z,99.90
2018-09-26T00:55:19.229Z,99.90
2018-09-26T00:57:47.729Z,99.90
2018-09-26T01:00:16.265Z,99.90
2018-09-26T01:02:44.755Z,99.90
2018-09-26T01:05:13.305Z,99.90
2018-09-26T01:07:41.818Z,99.90
2018-09-26T01:10:10.354Z,99.90
2018-09-26T01:12:38.922Z,99.90
2018-09-26T01:15:07.496Z,99.90
2018-09-26T01:17:36.013Z,99.90
2018-09-26T01:20:04.547Z,99.90
2018-09-26T01:22:33.047Z,99.90
2018-09-26T01:25:01.582Z,99.90
2018-09-26T01:27:33.032Z,99.90
2018-09-26T01:30:02.824Z,99.90
2018-09-26T01:32:31.335Z,99.90
2018-09-26T01:34:59.883Z,99.90
2018-09-26T01:37:28.431Z,99.90
2018-09-26T01:39:57.256Z,99.90
2018-09-26T01:42:25.812Z,99.90
2018-09-26T01:44:54.320Z,99.90
2018-09-26T01:47:22.859Z,99.90
2018-09-26T01:49:51.339Z,99.90
2018-09-26T01:52:19.811Z,99.90
2018-09-26T01:54:48.353Z,99.90
2018-09-26T01:57:16.917Z,99.90
2018-09-26T01:59:45.476Z,99.90
2018-09-26T02:02:13.975Z,99.90
2018-09-26T02:04:42.479Z,99.90
2018-09-26T02:07:10.971Z,99.90
2018-09-26T02:09:39.505Z,99.90
2018-09-26T02:12:08.360Z,99.90
2018-09-26T02:14:36.854Z,99.90
2018-09-26T02:17:05.438Z,99.90
2018-09-26T02:19:33.977Z,99.90
2018-09-26T02:22:02.533Z,99.90
2018-09-26T02:24:31.060Z,99.90
2018-09-26T02:26:59.591Z,99.90
2018-09-26T02:29:28.089Z,99.90
2018-09-26T02:31:56.632Z,99.90
2018-09-26T02:34:25.134Z,99.90
2018-09-26T02:36:53.652Z,99.90
2018-09-26T02:39:22.160Z,99.90
2018-09-26T02:41:50.717Z,99.90
2018-09-26T02:44:19.238Z,99.90
2018-09-26T02:46:49.895Z,99.90
2018-09-26T02:49:18.402Z,99.90
2018-09-26T02:51:46.953Z,99.90
2018-09-26T02:54:15.456Z,99.90
2018-09-26T02:56:43.988Z,99.90
2018-09-26T02:59:12.516Z,99.90
2018-09-26T03:01:41.025Z,99.90
2018-09-26T03:04:09.549Z,99.90
2018-09-26T03:06:38.062Z,99.90
2018-09-26T03:09:07.968Z,99.90
2018-09-26T03:11:36.481Z,99.90
2018-09-26T03:14:05.038Z,99.90
2018-09-26T03:16:33.604Z,99.90
2018-09-26T03:19:02.149Z,99.90
2018-09-26T03:21:30.792Z,99.90
2018-09-26T03:23:59.308Z,99.90
2018-09-26T03:26:27.824Z,99.90
2018-09-26T03:28:56.332Z,99.90
2018-09-26T03:31:24.841Z,99.90
2018-09-26T03:33:53.396Z,99.90
2018-09-26T03:36:21.937Z,99.90
2018-09-26T03:38:50.477Z,99.90
2018-09-26T03:41:18.988Z,99.90
2018-09-26T03:43:47.538Z,99.90
2018-09-26T03:46:16.067Z,99.90
2018-09-26T03:48:44.555Z,99.90
2018-09-26T03:51:13.071Z,99.90
2018-09-26T03:53:41.604Z,99.90
2018-09-26T03:56:10.096Z,99.90
2018-09-26T03:58:38.633Z,99.90
2018-09-26T04:01:07.204Z,99.90
2018-09-26T04:03:35.700Z,99.90
2018-09-26T04:06:04.324Z,99.90
2018-09-26T04:08:32.831Z,99.90
2018-09-26T04:11:01.365Z,99.90
2018-09-26T04:13:29.906Z,99.90
2018-09-26T04:15:58.396Z,99.90
2018-09-26T04:18:27.419Z,99.90
2018-09-26T04:20:56.510Z,99.90
2018-09-26T04:23:25.053Z,99.90
2018-09-26T04:25:53.578Z,99.90
2018-09-26T04:28:22.115Z,99.90
2018-09-26T04:30:50.912Z,99.90
2018-09-26T04:33:19.549Z,99.90
2018-09-26T04:35:47.972Z,99.90
2018-09-26T04:38:16.483Z,99.90
2018-09-26T04:40:44.995Z,99.90
2018-09-26T04:43:13.567Z,99.90
2018-09-26T04:45:43.612Z,99.90
2018-09-26T04:48:12.211Z,99.90
2018-09-26T04:50:40.724Z,99.90
2018-09-26T04:53:09.223Z,99.90
2018-09-26T04:55:37.772Z,99.90
2018-09-26T04:58:06.545Z,99.90
2018-09-26T05:00:35.031Z,99.90
2018-09-26T05:03:03.553Z,99.90
2018-09-26T05:05:32.028Z,99.90
2018-09-26T05:08:00.577Z,99.90
2018-09-26T05:10:29.085Z,99.90
2018-09-26T05:12:57.649Z,99.90
2018-09-26T05:15:26.216Z,99.90
2018-09-26T05:17:56.249Z,99.90
2018-09-26T05:20:26.030Z,99.90
2018-09-26T05:22:55.681Z,99.90
2018-09-26T05:25:25.206Z,99.90
2018-09-26T05:27:58.636Z,99.90
2018-09-26T05:30:28.136Z,99.90
2018-09-26T05:32:59.598Z,99.90
2018-09-26T05:35:29.716Z,99.90
2018-09-26T05:38:01.519Z,99.90
2018-09-26T05:40:31.657Z,99.90
2018-09-26T05:43:01.318Z,99.90
2018-09-26T05:45:29.842Z,99.90
2018-09-26T05:47:58.373Z,99.90
2018-09-26T05:50:26.875Z,99.90
2018-09-26T05:52:55.425Z,99.90
2018-09-26T05:55:23.955Z,99.90
2018-09-26T05:57:52.488Z,99.90
2018-09-26T06:00:21.019Z,99.90
2018-09-26T06:02:49.536Z,99.90
2018-09-26T06:05:18.128Z,99.90
2018-09-26T06:07:46.598Z,99.90
2018-09-26T06:10:15.132Z,99.90
2018-09-26T06:12:43.710Z,99.90
2018-09-26T06:15:12.217Z,99.90
2018-09-26T06:17:40.786Z,99.90
2018-09-26T06:20:09.324Z,99.90
2018-09-26T06:22:37.858Z,99.90
2018-09-26T06:25:06.431Z,99.90
2018-09-26T06:27:34.948Z,99.90
2018-09-26T06:30:03.552Z,99.90
2018-09-26T06:32:32.074Z,99.90
2018-09-26T06:35:00.634Z,99.90
2018-09-26T06:37:29.152Z,99.90
2018-09-26T06:39:57.647Z,99.90
2018-09-26T06:42:26.177Z,99.90
2018-09-26T06:44:54.692Z,99.90
2018-09-26T06:47:23.228Z,99.90
2018-09-26T06:49:51.742Z,99.90
2018-09-26T06:52:20.256Z,99.90
2018-09-26T06:54:48.804Z,94.20
2018-09-26T06:57:17.361Z,86.90
2018-09-26T06:59:45.914Z,79.50
2018-09-26T07:02:14.520Z,72.70
2018-09-26T07:04:43.018Z,73.60
2018-09-26T07:07:11.562Z,70.10
2018-09-26T07:09:40.078Z,67.90
2018-09-26T07:12:08.603Z,66.10
2018-09-26T07:14:37.133Z,68.60
2018-09-26T07:17:05.708Z,68.00
2018-09-26T07:19:34.230Z,67.40
2018-09-26T07:22:02.767Z,65.30
2018-09-26T07:24:31.282Z,66.90
2018-09-26T07:26:59.836Z,61.10
2018-09-26T07:29:28.358Z,61.10
2018-09-26T07:31:56.883Z,58.40
2018-09-26T07:34:30.632Z,58.80
2018-09-26T07:36:59.536Z,56.10
2018-09-26T07:39:28.027Z,55.00
2018-09-26T07:41:56.547Z,51.00
2018-09-26T07:44:25.056Z,48.00
2018-09-26T07:46:53.643Z,48.70
2018-09-26T07:49:22.259Z,47.60
2018-09-26T07:51:50.810Z,48.40
2018-09-26T07:54:19.534Z,49.80
2018-09-26T07:56:48.527Z,52.80
2018-09-26T07:59:17.044Z,50.40
2018-09-26T08:01:45.817Z,49.40
2018-09-26T08:04:14.357Z,50.00
2018-09-26T08:06:43.749Z,50.40
2018-09-26T08:09:12.491Z,51.10
2018-09-26T08:11:41.080Z,50.20
2018-09-26T08:14:09.540Z,49.70
2018-09-26T08:16:38.102Z,52.00
2018-09-26T08:19:06.606Z,52.20
2018-09-26T08:21:35.186Z,53.50
2018-09-26T08:24:03.811Z,51.20
2018-09-26T08:26:32.244Z,51.30
2018-09-26T08:29:00.768Z,51.30
2018-09-26T08:31:29.288Z,51.50
2018-09-26T08:33:57.833Z,52.40
2018-09-26T08:36:26.347Z,54.30
2018-09-26T08:38:54.868Z,55.20
2018-09-26T08:41:23.390Z,57.20
2018-09-26T08:43:51.909Z,55.90
2018-09-26T08:46:20.427Z,58.40
2018-09-26T08:48:48.949Z,58.80
2018-09-26T08:51:17.576Z,58.40
2018-09-26T08:53:46.179Z,59.80
2018-09-26T08:56:14.699Z,60.00
2018-09-26T08:58:43.221Z,62.30
2018-09-26T09:01:16.982Z,62.10
2018-09-26T09:03:45.485Z,62.30
2018-09-26T09:06:14.107Z,61.60
2018-09-26T09:08:42.597Z,62.00
2018-09-26T09:11:11.135Z,58.10
2018-09-26T09:13:39.647Z,59.80
2018-09-26T09:16:08.175Z,59.30
2018-09-26T09:18:36.690Z,58.20
2018-09-26T09:21:05.245Z,57.80
2018-09-26T09:23:33.758Z,58.00
2018-09-26T09:26:02.369Z,57.80
2018-09-26T09:28:30.921Z,57.20
2018-09-26T09:30:59.431Z,56.80
2018-09-26T09:33:27.959Z,55.00
2018-09-26T09:35:56.516Z,56.20
2018-09-26T09:38:25.018Z,58.10
2018-09-26T09:40:53.557Z,58.60
2018-09-26T09:43:22.703Z,57.00
2018-09-26T09:45:51.253Z,53.70
2018-09-26T09:48:19.807Z,54.30
2018-09-26T09:50:48.289Z,53.90
2018-09-26T09:53:19.088Z,56.10
2018-09-26T09:55:49.741Z,53.40
2018-09-26T09:58:18.307Z,48.80
2018-09-26T10:00:52.011Z,48.70
2018-09-26T10:03:20.579Z,49.50
2018-09-26T10:05:49.124Z,52.40
2018-09-26T10:08:17.673Z,49.00
2018-09-26T10:10:46.219Z,49.70
2018-09-26T10:13:14.732Z,49.20
2018-09-26T10:15:43.532Z,50.00
2018-09-26T10:18:12.084Z,50.00
2018-09-26T10:20:40.611Z,50.30
2018-09-26T10:23:09.131Z,49.80
2018-09-26T10:25:37.652Z,49.00
2018-09-26T10:28:06.400Z,51.40
2018-09-26T10:30:34.941Z,52.30
2018-09-26T10:33:03.464Z,51.60
2018-09-26T10:35:32.040Z,52.10
2018-09-26T10:38:00.593Z,51.30
2018-09-26T10:40:29.484Z,51.10
2018-09-26T10:42:58.021Z,51.70
2018-09-26T10:45:26.570Z,54.10
2018-09-26T10:47:55.081Z,53.20
2018-09-26T10:50:23.630Z,51.90
2018-09-26T10:52:52.219Z,52.80
2018-09-26T10:55:20.725Z,51.30
2018-09-26T10:57:49.238Z,53.70
2018-09-26T11:00:17.822Z,52.40
2018-09-26T11:02:46.337Z,55.70
2018-09-26T11:05:14.911Z,58.90
2018-09-26T11:07:43.395Z,57.80
2018-09-26T11:10:11.988Z,54.30
2018-09-26T11:12:40.514Z,53.10
2018-09-26T11:15:09.048Z,52.30
2018-09-26T11:17:37.515Z,54.00
2018-09-26T11:20:06.612Z,52.30
2018-09-26T11:22:35.127Z,51.00
2018-09-26T11:25:03.704Z,47.50
2018-09-26T11:27:32.172Z,47.50
2018-09-26T11:30:00.682Z,47.10
2018-09-26T11:32:29.176Z,47.80
2018-09-26T11:34:57.914Z,47.40
2018-09-26T11:37:26.453Z,45.80
2018-09-26T11:39:54.939Z,46.10
2018-09-26T11:42:23.444Z,48.90
2018-09-26T11:44:52.032Z,49.30
2018-09-26T11:47:20.487Z,47.50
2018-09-26T11:49:49.020Z,49.70
2018-09-26T11:52:17.587Z,52.50
2018-09-26T11:54:46.077Z,50.50
2018-09-26T11:57:14.595Z,48.70
2018-09-26T11:59:43.093Z,48.30
2018-09-26T12:02:11.677Z,50.30
2018-09-26T12:04:40.141Z,49.40
2018-09-26T12:07:08.719Z,50.70
2018-09-26T12:09:37.249Z,50.10
2018-09-26T12:12:05.772Z,50.30
2018-09-26T12:14:34.305Z,49.50
2018-09-26T12:17:02.824Z,49.60
2018-09-26T12:19:31.372Z,48.60
2018-09-26T12:22:00.809Z,48.70
2018-09-26T12:24:29.362Z,47.80
2018-09-26T12:26:57.907Z,48.60
2018-09-26T12:29:26.419Z,49.70
2018-09-26T12:31:54.935Z,51.00
2018-09-26T12:34:23.459Z,50.70
2018-09-26T12:36:51.960Z,50.50
2018-09-26T12:39:20.512Z,49.70
2018-09-26T12:41:49.024Z,49.10
2018-09-26T12:44:17.540Z,50.00
2018-09-26T12:46:46.117Z,49.00
2018-09-26T12:49:14.619Z,48.50
2018-09-26T12:51:43.119Z,50.70
2018-09-26T12:54:11.647Z,50.50
2018-09-26T12:56:40.146Z,52.90
2018-09-26T12:59:08.654Z,52.00
2018-09-26T13:01:37.140Z,51.30
2018-09-26T13:04:05.675Z,53.10
2018-09-26T13:06:34.163Z,55.80
2018-09-26T13:09:02.771Z,50.60
2018-09-26T13:11:31.252Z,50.00
2018-09-26T13:13:59.771Z,54.00
2018-09-26T13:16:28.292Z,50.60
2018-09-26T13:18:56.843Z,49.90
2018-09-26T13:21:25.323Z,52.40
2018-09-26T13:23:53.815Z,53.40
2018-09-26T13:26:22.379Z,54.40
2018-09-26T13:28:50.852Z,52.80
2018-09-26T13:31:19.340Z,54.90
2018-09-26T13:33:47.859Z,54.10
2018-09-26T13:36:16.348Z,50.10
2018-09-26T13:38:44.836Z,49.40
2018-09-26T13:41:13.386Z,53.80
2018-09-26T13:43:42.336Z,54.40
2018-09-26T13:46:10.995Z,53.60
2018-09-26T13:48:39.340Z,52.00
2018-09-26T13:51:07.966Z,48.30
2018-09-26T13:53:36.453Z,47.90
2018-09-26T13:56:04.938Z,46.80
2018-09-26T13:58:33.439Z,48.80
2018-09-26T14:01:01.913Z,48.10
2018-09-26T14:03:30.424Z,49.80
2018-09-26T14:05:59.002Z,44.90
2018-09-26T14:08:27.688Z,44.50
2018-09-26T14:10:56.170Z,41.90
2018-09-26T14:13:24.644Z,43.60
2018-09-26T14:15:53.119Z,46.90
2018-09-26T14:18:21.698Z,40.80
2018-09-26T14:20:50.148Z,41.50
2018-09-26T14:23:18.648Z,45.20
2018-09-26T14:25:47.151Z,47.70
2018-09-26T14:28:15.643Z,49.10
2018-09-26T14:30:44.238Z,52.20
2018-09-26T14:33:12.700Z,50.60
2018-09-26T14:35:41.257Z,49.50
2018-09-26T14:38:09.770Z,49.50
2018-09-26T14:40:38.249Z,46.80
2018-09-26T14:43:07.020Z,48.20
2018-09-26T14:45:35.528Z,50.20
2018-09-26T14:48:04.108Z,54.50
2018-09-26T14:50:32.643Z,54.00
2018-09-26T14:53:01.128Z,52.40
2018-09-26T14:55:29.668Z,54.60
2018-09-26T14:57:58.242Z,50.40
2018-09-26T15:00:26.876Z,54.80
2018-09-26T15:02:55.286Z,55.50
2018-09-26T15:05:23.785Z,56.70
2018-09-26T15:07:52.288Z,54.10
2018-09-26T15:10:20.831Z,57.10
2018-09-26T15:12:49.352Z,56.70
2018-09-26T15:15:17.824Z,53.60
2018-09-26T15:17:46.328Z,53.40
2018-09-26T15:20:14.933Z,57.50
2018-09-26T15:22:43.338Z,56.50
2018-09-26T15:25:11.828Z,58.30
2018-09-26T15:27:40.426Z,59.70
2018-09-26T15:30:08.967Z,58.70
2018-09-26T15:32:37.580Z,59.30
2018-09-26T15:35:06.216Z,61.20
2018-09-26T15:37:34.903Z,60.70
2018-09-26T15:40:03.546Z,60.60
2018-09-26T15:42:33.956Z,62.40
2018-09-26T15:45:02.585Z,62.50
2018-09-26T15:47:31.129Z,64.30
2018-09-26T15:49:59.688Z,63.80
2018-09-26T15:52:28.180Z,65.70
2018-09-26T15:54:56.692Z,65.40
2018-09-26T15:57:25.186Z,67.30
2018-09-26T15:59:53.684Z,70.30
2018-09-26T16:02:22.291Z,69.10
2018-09-26T16:04:50.766Z,70.10
2018-09-26T16:07:19.264Z,70.70
2018-09-26T16:09:47.771Z,70.00
2018-09-26T16:12:16.347Z,71.30
2018-09-26T16:14:44.881Z,72.10
2018-09-26T16:17:13.411Z,74.60
2018-09-26T16:19:41.915Z,75.70
2018-09-26T16:22:10.494Z,76.60
2018-09-26T16:24:38.975Z,78.00
2018-09-26T16:27:07.586Z,80.10
2018-09-26T16:29:36.106Z,83.30
2018-09-26T16:32:04.632Z,86.00
2018-09-26T16:34:33.976Z,88.10
2018-09-26T16:37:02.507Z,85.90
2018-09-26T16:39:31.101Z,86.50
2018-09-26T16:41:59.643Z,86.50
2018-09-26T16:44:28.127Z,86.10
2018-09-26T16:46:56.859Z,90.20
2018-09-26T16:49:25.385Z,91.20
2018-09-26T16:51:53.900Z,92.00
2018-09-26T16:54:22.602Z,91.20
2018-09-26T16:56:50.964Z,92.00
2018-09-26T16:59:19.501Z,92.30
2018-09-26T17:01:47.971Z,93.00
2018-09-26T17:04:16.476Z,93.00
2018-09-26T17:06:45.604Z,92.20
2018-09-26T17:09:14.084Z,94.30
2018-09-26T17:11:42.638Z,94.80
2018-09-26T17:14:11.523Z,94.10
2018-09-26T17:16:40.057Z,93.90
2018-09-26T17:19:08.821Z,94.70
2018-09-26T17:21:37.300Z,95.10
2018-09-26T17:24:05.955Z,95.50
2018-09-26T17:26:34.459Z,95.90
2018-09-26T17:29:03.007Z,96.40
2018-09-26T17:31:31.520Z,96.40
2018-09-26T17:33:59.991Z,97.00
2018-09-26T17:36:28.579Z,98.50
2018-09-26T17:38:57.089Z,99.60
2018-09-26T17:41:25.571Z,99.90
2018-09-26T17:43:54.071Z,99.90
2018-09-26T17:46:22.617Z,99.90
2018-09-26T17:48:51.114Z,99.90
2018-09-26T17:51:19.621Z,99.90
2018-09-26T17:53:48.119Z,99.90
2018-09-26T17:56:16.620Z,99.90
2018-09-26T17:58:45.135Z,99.90
2018-09-26T18:01:13.646Z,99.90
2018-09-26T18:03:42.152Z,99.90
2018-09-26T18:06:10.657Z,99.90
2018-09-26T18:08:39.263Z,99.90
2018-09-26T18:11:07.884Z,99.90
2018-09-26T18:13:36.477Z,99.90
2018-09-26T18:16:05.142Z,99.90
2018-09-26T18:18:33.629Z,99.90
2018-09-26T18:21:02.129Z,99.90
2018-09-26T18:23:30.648Z,99.90
2018-09-26T18:25:59.181Z,99.90
2018-09-26T18:28:27.672Z,99.90
2018-09-26T18:30:56.167Z,99.90
2018-09-26T18:33:24.738Z,99.90
2018-09-26T18:35:53.306Z,99.90
2018-09-26T18:38:21.829Z,99.90
2018-09-26T18:40:51.454Z,99.90
2018-09-26T18:43:19.966Z,99.90
2018-09-26T18:45:48.475Z,99.90
2018-09-26T18:48:17.008Z,99.90
2018-09-26T18:50:45.536Z,99.90
2018-09-26T18:53:14.074Z,99.90
2018-09-26T18:55:42.610Z,99.90
2018-09-26T18:58:11.141Z,99.90
2018-09-26T19:00:39.684Z,99.90
2018-09-26T19:03:08.340Z,99.90
2018-09-26T19:05:36.761Z,99.90
2018-09-26T19:08:05.275Z,99.90
2018-09-26T19:10:33.781Z,99.90
2018-09-26T19:13:03.673Z,99.90
2018-09-26T19:15:33.649Z,99.90
2018-09-26T19:18:03.616Z,99.90
2018-09-26T19:20:33.559Z,99.90
2018-09-26T19:23:02.114Z,99.90
2018-09-26T19:25:32.436Z,99.90
2018-09-26T19:28:02.956Z,99.90
2018-09-26T19:30:33.187Z,99.90
2018-09-26T19:33:03.684Z,99.90
2018-09-26T19:35:33.842Z,99.90
2018-09-26T19:38:02.568Z,99.90
2018-09-26T19:40:31.331Z,99.90
2018-09-26T19:42:59.862Z,99.90
2018-09-26T19:45:28.558Z,99.90
2018-09-26T19:47:57.080Z,99.90
2018-09-26T19:50:25.915Z,99.90
2018-09-26T19:52:54.427Z,99.90
2018-09-26T19:55:23.054Z,99.90
2018-09-26T19:57:51.679Z,99.90
2018-09-26T20:00:20.268Z,99.90
2018-09-26T20:02:48.788Z,99.90
2018-09-26T20:05:17.295Z,99.90
2018-09-26T20:07:45.803Z,99.90
2018-09-26T20:10:14.371Z,99.90
2018-09-26T20:12:42.818Z,99.90
2018-09-26T20:15:11.367Z,99.90
2018-09-26T20:17:39.872Z,99.90
2018-09-26T20:20:08.441Z,99.90
2018-09-26T20:22:37.025Z,99.90
2018-09-26T20:25:05.700Z,99.90
2018-09-26T20:27:34.354Z,99.90
2018-09-26T20:30:02.785Z,99.90
2018-09-26T20:32:31.285Z,99.90
2018-09-26T20:34:59.870Z,99.90
2018-09-26T20:37:28.332Z,99.90
2018-09-26T20:39:56.888Z,99.90
2018-09-26T20:42:25.388Z,99.90
2018-09-26T20:44:53.927Z,99.90
2018-09-26T20:47:22.476Z,99.90
2018-09-26T20:49:51.231Z,99.90
2018-09-26T20:52:19.753Z,99.90
2018-09-26T20:54:48.575Z,99.90
2018-09-26T20:57:17.092Z,99.90
2018-09-26T20:59:45.604Z,99.90
2018-09-26T21:02:14.144Z,99.90
2018-09-26T21:04:42.680Z,99.90
2018-09-26T21:07:11.201Z,99.90
2018-09-26T21:09:39.740Z,99.90
2018-09-26T21:12:08.309Z,99.90
2018-09-26T21:14:36.837Z,99.90
2018-09-26T21:17:05.364Z,99.90
2018-09-26T21:19:33.880Z,99.90
2018-09-26T21:22:02.376Z,99.90
2018-09-26T21:24:30.957Z,99.90
2018-09-26T21:26:59.484Z,99.90
2018-09-26T21:29:28.020Z,99.90
2018-09-26T21:31:56.568Z,99.90
2018-09-26T21:34:25.414Z,99.90
2018-09-26T21:36:53.909Z,99.90
2018-09-26T21:39:22.455Z,99.90
2018-09-26T21:41:51.005Z,99.90
2018-09-26T21:44:19.504Z,99.90
2018-09-26T21:46:47.992Z,99.90
2018-09-26T21:49:16.516Z,99.90
2018-09-26T21:51:45.081Z,99.90
2018-09-26T21:54:13.585Z,99.90
2018-09-26T21:56:42.103Z,99.90
2018-09-26T21:59:10.628Z,99.90
2018-09-26T22:01:39.128Z,99.90
2018-09-26T22:04:07.777Z,99.90
2018-09-26T22:06:36.341Z,99.90
2018-09-26T22:09:06.697Z,99.90
2018-09-26T22:11:35.239Z,99.90
2018-09-26T22:14:03.799Z,99.90
2018-09-26T22:16:32.301Z,99.90
2018-09-26T22:19:00.857Z,99.90
2018-09-26T22:21:29.369Z,99.90
2018-09-26T22:23:57.881Z,99.90
2018-09-26T22:26:26.497Z,99.90
2018-09-26T22:28:54.985Z,99.90
2018-09-26T22:31:23.590Z,99.90
2018-09-26T22:33:52.020Z,99.90
2018-09-26T22:36:20.540Z,99.90
2018-09-26T22:38:49.070Z,99.90
2018-09-26T22:41:17.556Z,99.90
2018-09-26T22:43:47.913Z,99.90
2018-09-26T22:46:16.387Z,99.90
2018-09-26T22:48:44.907Z,99.90
2018-09-26T22:51:13.429Z,99.90
2018-09-26T22:53:41.963Z,99.90
2018-09-26T22:56:10.489Z,99.90
2018-09-26T22:58:38.979Z,99.90
2018-09-26T23:01:07.472Z,99.90
2018-09-26T23:03:35.966Z,99.90
2018-09-26T23:06:04.470Z,99.90
2018-09-26T23:08:39.280Z,99.90
2018-09-26T23:11:07.788Z,99.90
2018-09-26T23:13:36.576Z,99.90
2018-09-26T23:16:05.172Z,99.90
2018-09-26T23:18:33.685Z,99.90
2018-09-26T23:21:02.257Z,99.90
2018-09-26T23:23:30.993Z,99.90
2018-09-26T23:25:59.500Z,99.90
2018-09-26T23:28:28.024Z,99.90
2018-09-26T23:30:56.491Z,99.90
2018-09-26T23:33:25.014Z,99.90
2018-09-26T23:35:53.507Z,99.90
2018-09-26T23:38:22.048Z,99.90
2018-09-26T23:40:50.564Z,99.90
2018-09-26T23:43:19.064Z,99.90
2018-09-26T23:45:47.565Z,99.90
2018-09-26T23:48:16.071Z,99.90
2018-09-26T23:50:44.552Z,99.90
2018-09-26T23:53:13.067Z,99.90
2018-09-26T23:55:41.581Z,99.90
2018-09-26T23:58:10.105Z,99.90
